Time;durP1;ratioP1;P1;durP2;ratioP2;P2;SDS_P1;SDS_P2;PMS_P1;PMS_P2;Temp;Humidity;BMP_temperature;BMP_pressure;BME280_temperature;BME280_humidity;BME280_pressure;Samples;Min_cycle;Max_cycle;Signal;HPM_P1;HPM_P2
2023/01/16 00:02:28;;;;;;;;;;;;;;;4.33;100.00;99779.22;5571949;31;34164;-71
2023/01/16 00:05:34;;;;;;;;;;;;;;;4.26;100.00;99773.69;5586157;31;34594;-71
2023/01/16 00:08:38;;;;;;;;;;;;;;;4.34;100.00;99775.62;5586024;31;34792;-72
2023/01/16 00:11:47;;;;;;;;;;;;;;;4.24;100.00;99759.91;5586261;31;34235;-72
2023/01/16 00:14:55;;;;;;;;;;;;;;;4.22;100.00;99761.81;5571033;31;33417;-71
2023/01/16 00:18:02;;;;;;;;;;;;;;;4.24;100.00;99766.94;5587877;31;33884;-71
2023/01/16 00:21:10;;;;;;;;;;;;;;;4.25;100.00;99765.97;5575153;31;34342;-71
2023/01/16 00:24:17;;;;;;;;;;;;;;;4.25;100.00;99768.59;5575050;31;34882;-71
2023/01/16 00:27:26;;;;;;;;;;;;;;;4.26;100.00;99765.00;5588560;31;34883;-71
2023/01/16 00:30:36;;;;;;;;;;;;;;;4.24;100.00;99744.16;5575200;31;34426;-71
2023/01/16 00:33:42;;;;;;;;;;;;;;;4.27;100.00;99745.62;5588393;31;34778;-71
2023/01/16 00:36:53;;;;;;;;;;;;;;;4.25;100.00;99752.84;5588456;31;34494;-71
2023/01/16 00:39:59;;;;;;;;;;;;;;;4.26;100.00;99752.69;5574839;31;34580;-71
2023/01/16 00:43:07;;;;;;;;;;;;;;;4.29;100.00;99748.97;5574891;31;34912;-71
2023/01/16 00:46:12;;;;;;;;;;;;;;;4.29;100.00;99755.03;5574649;31;34652;-71
2023/01/16 00:49:19;;;;;;;;;;;;;;;4.28;100.00;99742.87;5561638;31;34365;-72
2023/01/16 00:52:28;;;;;;;;;;;;;;;4.24;100.00;99733.66;5588129;31;34352;-72
2023/01/16 00:55:36;;;;;;;;;;;;;;;4.25;100.00;99748.44;5588331;31;33890;-71
2023/01/16 00:58:44;;;;;;;;;;;;;;;4.16;100.00;99743.22;5588382;31;34388;-71
2023/01/16 01:01:51;;;;;;;;;;;;;;;4.14;100.00;99748.59;5574952;31;33866;-72
2023/01/16 01:04:57;;;;;;;;;;;;;;;4.15;100.00;99736.31;5574596;31;34929;-72
2023/01/16 01:08:08;;;;;;;;;;;;;;;4.31;100.00;99739.12;5573558;31;34337;-71
2023/01/16 01:11:14;;;;;;;;;;;;;;;4.23;100.00;99734.59;5574040;31;32755;-72
2023/01/16 01:14:23;;;;;;;;;;;;;;;4.32;100.00;99735.53;5587986;31;33841;-73
2023/01/16 01:17:32;;;;;;;;;;;;;;;4.36;100.00;99734.28;5588126;31;33999;-71
2023/01/16 01:20:41;;;;;;;;;;;;;;;4.25;100.00;99729.22;5574737;31;34125;-72
2023/01/16 01:24:00;;;;;;;;;;;;;;;4.24;100.00;99728.41;5587945;31;35093;-72
2023/01/16 01:27:10;;;;;;;;;;;;;;;4.20;100.00;99721.78;5561717;31;34607;-72
2023/01/16 01:30:17;;;;;;;;;;;;;;;4.38;100.00;99734.97;5587302;31;34918;-71
2023/01/16 01:33:29;;;;;;;;;;;;;;;4.30;100.00;99730.44;5587903;31;34942;-71
2023/01/16 01:36:38;;;;;;;;;;;;;;;4.34;100.00;99723.94;5587996;31;33633;-71
2023/01/16 01:39:47;;;;;;;;;;;;;;;4.32;100.00;99707.47;5587897;31;34749;-72
2023/01/16 01:42:54;;;;;;;;;;;;;;;4.40;100.00;99690.19;5587924;31;34354;-72
2023/01/16 01:46:01;;;;;;;;;;;;;;;4.28;100.00;99686.91;5587859;31;34178;-71
2023/01/16 01:49:27;;;;;;;;;;;;;;;4.28;100.00;99708.75;5587800;31;35033;-71
2023/01/16 01:52:37;;;;;;;;;;;;;;;4.27;100.00;99701.00;5573441;31;33052;-71
2023/01/16 01:55:46;;;;;;;;;;;;;;;4.25;100.00;99702.97;5574475;31;34421;-71
2023/01/16 01:59:02;;;;;;;;;;;;;;;4.44;100.00;99712.56;5587733;31;34100;-71
2023/01/16 02:02:10;;;;;;;;;;;;;;;4.59;100.00;99717.19;5574971;31;34181;-71
2023/01/16 02:05:21;;;;;;;;;;;;;;;4.62;100.00;99711.63;5587636;31;34743;-71
2023/01/16 02:08:29;;;;;;;;;;;;;;;4.49;100.00;99703.28;5574060;31;34846;-72
2023/01/16 02:11:54;;;;;;;;;;;;;;;4.43;100.00;99695.16;5587499;31;34980;-72
2023/01/16 02:15:01;;;;;;;;;;;;;;;4.47;100.00;99699.13;5587554;31;34990;-72
2023/01/16 02:21:35;;;;;;;;;;;;;;;4.50;100.00;99691.81;5576271;31;34231;-72
2023/01/16 02:24:43;;;;;;;;;;;;;;;4.62;100.00;99684.53;5573921;31;34046;-72
2023/01/16 02:28:06;;;;;;;;;;;;;;;4.51;100.00;99675.06;5587464;31;33883;-71
2023/01/16 02:31:32;;;;;;;;;;;;;;;4.55;100.00;99675.63;5560710;31;32798;-71
2023/01/16 02:34:42;;;;;;;;;;;;;;;4.43;100.00;99667.09;5587533;31;34121;-72
2023/01/16 02:38:04;;;;;;;;;;;;;;;4.40;100.00;99659.50;5572902;31;33312;-71
2023/01/16 02:41:10;;;;;;;;;;;;;;;4.38;100.00;99657.03;5572513;31;34122;-71
2023/01/16 02:44:18;;;;;;;;;;;;;;;4.43;100.00;99650.50;5587394;31;34866;-72
2023/01/16 02:47:56;;;;;;;;;;;;;;;4.49;100.00;99660.44;5587378;31;34808;-72
2023/01/16 02:51:15;;;;;;;;;;;;;;;4.54;100.00;99645.88;5572979;31;33424;-71
2023/01/16 02:54:32;;;;;;;;;;;;;;;4.51;100.00;99647.97;5587232;31;34768;-73
2023/01/16 02:57:43;;;;;;;;;;;;;;;4.56;100.00;99643.91;5587292;31;34346;-72
2023/01/16 03:00:55;;;;;;;;;;;;;;;4.57;100.00;99645.59;5587280;31;34260;-72
2023/01/16 03:04:22;;;;;;;;;;;;;;;4.54;100.00;99638.00;5572519;31;34959;-72
2023/01/16 03:07:35;;;;;;;;;;;;;;;4.55;100.00;99637.00;5587335;31;33854;-72
2023/01/16 03:10:49;;;;;;;;;;;;;;;4.57;100.00;99637.69;5586973;31;34450;-71
2023/01/16 03:13:55;;;;;;;;;;;;;;;4.58;100.00;99638.53;5573302;31;34773;-71
2023/01/16 03:17:07;;;;;;;;;;;;;;;4.68;100.00;99619.09;5566123;32;33947;-71
2023/01/16 03:20:18;;;;;;;;;;;;;;;4.67;100.00;99603.50;5566505;32;34586;-72
2023/01/16 03:23:51;;;;;;;;;;;;;;;4.55;100.00;99586.31;5567132;32;34185;-71
2023/01/16 03:27:10;;;;;;;;;;;;;;;4.69;100.00;99585.78;5567236;32;34324;-72
2023/01/16 03:30:39;;;;;;;;;;;;;;;4.56;100.00;99587.94;5567113;32;34834;-71
2023/01/16 03:33:52;;;;;;;;;;;;;;;4.41;100.00;99582.34;5566154;32;34474;-72
2023/01/16 03:37:07;;;;;;;;;;;;;;;4.47;100.00;99575.69;5567058;32;33763;-72
2023/01/16 03:40:13;;;;;;;;;;;;;;;4.49;100.00;99569.34;5565754;32;34039;-72
2023/01/16 03:43:23;;;;;;;;;;;;;;;4.47;100.00;99580.94;5566940;32;34125;-72
2023/01/16 03:46:34;;;;;;;;;;;;;;;4.50;100.00;99572.78;5565974;32;34787;-72
2023/01/16 03:49:43;;;;;;;;;;;;;;;4.44;100.00;99555.00;5566733;32;34271;-72
2023/01/16 03:52:52;;;;;;;;;;;;;;;4.49;100.00;99556.19;5568221;32;34260;-72
2023/01/16 03:56:18;;;;;;;;;;;;;;;4.34;100.00;99557.69;5568427;32;33706;-72
2023/01/16 03:59:28;;;;;;;;;;;;;;;4.33;100.00;99554.22;5569169;32;34291;-72
2023/01/16 04:02:37;;;;;;;;;;;;;;;4.25;100.00;99542.81;5569118;32;34171;-72
2023/01/16 04:05:57;;;;;;;;;;;;;;;4.31;100.00;99536.94;5569024;32;34834;-72
2023/01/16 04:09:09;;;;;;;;;;;;;;;4.21;100.00;99544.09;5569107;32;34281;-72
2023/01/16 04:12:20;;;;;;;;;;;;;;;4.13;100.00;99534.31;5568984;32;34088;-72
2023/01/16 04:15:28;;;;;;;;;;;;;;;4.17;100.00;99525.16;5575820;31;34677;-72
2023/01/16 04:18:37;;;;;;;;;;;;;;;4.21;100.00;99516.00;5575269;31;34257;-72
2023/01/16 04:21:47;;;;;;;;;;;;;;;4.14;100.00;99508.91;5588576;31;34216;-71
2023/01/16 04:24:57;;;;;;;;;;;;;;;4.14;100.00;99512.34;5575237;31;34762;-71
2023/01/16 04:28:04;;;;;;;;;;;;;;;4.21;100.00;99507.34;5588501;31;34309;-71
2023/01/16 04:31:14;;;;;;;;;;;;;;;4.18;100.00;99497.13;5574910;31;34274;-71
2023/01/16 04:34:23;;;;;;;;;;;;;;;4.17;100.00;99485.78;5588338;31;34790;-73
2023/01/16 04:37:33;;;;;;;;;;;;;;;4.24;100.00;99486.03;5575264;31;34630;-71
2023/01/16 04:40:39;;;;;;;;;;;;;;;4.23;100.00;99479.94;5574841;31;34003;-72
2023/01/16 04:43:47;;;;;;;;;;;;;;;4.17;100.00;99480.53;5588474;31;34728;-73
2023/01/16 04:46:57;;;;;;;;;;;;;;;4.13;100.00;99484.44;5588416;31;34241;-73
2023/01/16 04:50:05;;;;;;;;;;;;;;;4.13;100.00;99488.88;5561347;31;33870;-72
2023/01/16 04:53:11;;;;;;;;;;;;;;;4.12;100.00;99481.97;5588294;31;34864;-72
2023/01/16 04:56:18;;;;;;;;;;;;;;;4.10;100.00;99468.19;5574745;31;34652;-72
2023/01/16 04:59:26;;;;;;;;;;;;;;;4.07;100.00;99469.28;5574723;31;34666;-72
2023/01/16 05:02:33;;;;;;;;;;;;;;;4.14;100.00;99464.28;5587779;31;34806;-72
2023/01/16 05:05:39;;;;;;;;;;;;;;;4.14;100.00;99461.66;5587654;31;34212;-72
2023/01/16 05:08:50;;;;;;;;;;;;;;;4.11;100.00;99465.41;5575020;31;34418;-71
2023/01/16 05:11:57;;;;;;;;;;;;;;;4.32;100.00;99454.59;5587944;31;33090;-72
2023/01/16 05:15:04;;;;;;;;;;;;;;;4.21;100.00;99450.38;5573611;31;32631;-72
2023/01/16 05:18:11;;;;;;;;;;;;;;;4.11;100.00;99448.84;5574407;31;34156;-71
2023/01/16 05:21:18;;;;;;;;;;;;;;;4.05;100.00;99452.87;5557894;32;33996;-72
2023/01/16 05:24:25;;;;;;;;;;;;;;;4.04;100.00;99451.22;5568140;32;34950;-72
2023/01/16 05:27:30;;;;;;;;;;;;;;;4.08;100.00;99446.50;5554707;32;34180;-72
2023/01/16 05:30:35;;;;;;;;;;;;;;;4.12;100.00;99448.66;5568108;32;34209;-72
2023/01/16 05:33:40;;;;;;;;;;;;;;;4.14;100.00;99451.97;5554542;32;34331;-73
2023/01/16 05:36:45;;;;;;;;;;;;;;;4.22;100.00;99446.78;5554516;32;34386;-72
2023/01/16 05:39:51;;;;;;;;;;;;;;;4.15;100.00;99445.75;5554649;32;35178;-74
2023/01/16 05:42:57;;;;;;;;;;;;;;;4.03;100.00;99444.31;5553910;32;34681;-74
2023/01/16 05:46:04;;;;;;;;;;;;;;;3.94;100.00;99450.47;5567393;32;35564;-72
2023/01/16 05:49:10;;;;;;;;;;;;;;;3.89;100.00;99450.06;5567854;32;34128;-72
2023/01/16 05:52:15;;;;;;;;;;;;;;;3.80;100.00;99454.41;5567876;32;34692;-72
2023/01/16 05:55:20;;;;;;;;;;;;;;;3.81;100.00;99450.81;5554087;32;34883;-73
2023/01/16 05:58:26;;;;;;;;;;;;;;;3.77;100.00;99448.66;5567871;32;34905;-73
2023/01/16 06:01:29;;;;;;;;;;;;;;;3.71;100.00;99452.69;5567951;32;34253;-73
2023/01/16 06:04:33;;;;;;;;;;;;;;;3.68;100.00;99465.25;5553401;32;35035;-73
2023/01/16 06:07:36;;;;;;;;;;;;;;;3.65;100.00;99462.91;5566868;32;34286;-73
2023/01/16 06:10:41;;;;;;;;;;;;;;;3.60;100.00;99460.72;5554004;32;35719;-72
2023/01/16 06:13:45;;;;;;;;;;;;;;;3.60;100.00;99454.66;5567637;32;34104;-73
2023/01/16 06:16:51;;;;;;;;;;;;;;;3.77;100.00;99453.88;5552725;32;32755;-72
2023/01/16 06:19:57;;;;;;;;;;;;;;;3.76;100.00;99447.81;5565388;32;34356;-72
2023/01/16 06:23:02;;;;;;;;;;;;;;;3.75;100.00;99440.91;5567326;32;33818;-72
2023/01/16 06:26:09;;;;;;;;;;;;;;;3.67;100.00;99453.13;5553567;32;34276;-72
2023/01/16 06:29:15;;;;;;;;;;;;;;;3.63;100.00;99449.12;5566733;32;34796;-72
2023/01/16 06:32:19;;;;;;;;;;;;;;;3.64;100.00;99448.97;5567461;32;34211;-72
2023/01/16 06:35:24;;;;;;;;;;;;;;;3.64;100.00;99428.00;5567264;32;34224;-72
2023/01/16 06:38:28;;;;;;;;;;;;;;;3.68;100.00;99426.72;5566577;32;34236;-73
2023/01/16 06:41:35;;;;;;;;;;;;;;;3.71;100.00;99425.62;5566413;32;34433;-72
2023/01/16 06:44:40;;;;;;;;;;;;;;;3.70;100.00;99418.72;5565394;32;33789;-73
2023/01/16 06:47:50;;;;;;;;;;;;;;;3.70;100.00;99422.16;5566358;32;34729;-72
2023/01/16 06:50:53;;;;;;;;;;;;;;;3.75;100.00;99416.47;5565509;32;34710;-73
2023/01/16 06:53:58;;;;;;;;;;;;;;;3.81;100.00;99411.47;5564789;32;35294;-72
2023/01/16 06:57:02;;;;;;;;;;;;;;;3.86;100.00;99417.09;5559234;32;34952;-73
2023/01/16 07:00:07;;;;;;;;;;;;;;;3.98;100.00;99420.31;5539189;32;33432;-72
2023/01/16 07:03:12;;;;;;;;;;;;;;;3.98;100.00;99406.37;5566840;32;34213;-72
2023/01/16 07:06:17;;;;;;;;;;;;;;;4.01;100.00;99417.41;5552488;32;34876;-72
2023/01/16 07:09:30;;;;;;;;;;;;;;;4.10;100.00;99428.81;5564935;32;34471;-73
2023/01/16 07:12:34;;;;;;;;;;;;;;;4.06;100.00;99424.84;5563612;31;35097;-72
2023/01/16 07:22:35;;;;;;;;;;;;;;;4.17;100.00;99419.34;5554958;32;34213;-73
2023/01/16 07:25:40;;;;;;;;;;;;;;;4.15;100.00;99416.06;5557403;32;34275;-72
2023/01/16 07:28:44;;;;;;;;;;;;;;;4.20;100.00;99417.25;5545397;32;34667;-72
2023/01/16 07:31:49;;;;;;;;;;;;;;;4.28;100.00;99408.63;5549812;32;34546;-73
2023/01/16 07:34:54;;;;;;;;;;;;;;;4.22;100.00;99417.09;5549714;32;33945;-73
2023/01/16 07:37:59;;;;;;;;;;;;;;;4.25;100.00;99408.94;5536266;32;34007;-73
2023/01/16 07:41:02;;;;;;;;;;;;;;;4.17;100.00;99412.28;5546177;32;34044;-73
2023/01/16 07:44:07;;;;;;;;;;;;;;;4.25;100.00;99407.13;5546974;32;35118;-72
2023/01/16 07:47:12;;;;;;;;;;;;;;;4.22;100.00;99406.59;5546199;32;34144;-73
2023/01/16 07:50:18;;;;;;;;;;;;;;;4.23;100.00;99387.25;5554041;32;34186;-72
2023/01/16 07:53:22;;;;;;;;;;;;;;;4.16;100.00;99376.53;5565434;32;34072;-73
2023/01/16 07:56:29;;;;;;;;;;;;;;;4.10;100.00;99376.31;5565237;32;34047;-72
2023/01/16 07:59:38;;;;;;;;;;;;;;;3.95;100.00;99376.03;5565399;32;33384;-73
2023/01/16 08:02:43;;;;;;;;;;;;;;;3.98;100.00;99365.22;5553487;32;33793;-73
2023/01/16 08:05:49;;;;;;;;;;;;;;;3.90;100.00;99354.66;5544991;32;33281;-72
2023/01/16 08:08:54;;;;;;;;;;;;;;;3.89;100.00;99355.63;5546224;32;34669;-72
2023/01/16 08:12:03;;;;;;;;;;;;;;;3.88;100.00;99340.84;5545691;32;33992;-72
2023/01/16 08:15:07;;;;;;;;;;;;;;;3.90;100.00;99339.75;5551166;32;33085;-74
2023/01/16 08:18:12;;;;;;;;;;;;;;;3.95;100.00;99326.16;5565358;32;34878;-72
2023/01/16 08:21:18;;;;;;;;;;;;;;;3.90;100.00;99310.88;5564967;32;34225;-72
2023/01/16 08:24:23;;;;;;;;;;;;;;;4.05;100.00;99305.09;5566026;32;34381;-72
2023/01/16 08:27:29;;;;;;;;;;;;;;;4.23;100.00;99300.63;5565049;32;34667;-73
2023/01/16 08:30:36;;;;;;;;;;;;;;;4.10;100.00;99305.44;5564866;32;34282;-73
2023/01/16 08:33:42;;;;;;;;;;;;;;;4.05;100.00;99298.03;5565928;32;33731;-73
2023/01/16 08:36:45;;;;;;;;;;;;;;;4.06;100.00;99294.44;5565821;32;34965;-73
2023/01/16 08:39:52;;;;;;;;;;;;;;;4.08;100.00;99296.91;5567879;32;34900;-73
2023/01/16 08:53:11;;;;;;;;;;;;;;;4.01;100.00;99257.34;5567876;32;34352;-72
2023/01/16 08:56:14;;;;;;;;;;;;;;;4.06;100.00;99246.37;5567366;32;35310;-73
2023/01/16 08:59:18;;;;;;;;;;;;;;;4.04;100.00;99240.44;5568687;32;35010;-72
2023/01/16 09:02:23;;;;;;;;;;;;;;;4.17;100.00;99238.22;5567364;32;34262;-72
2023/01/16 09:05:26;;;;;;;;;;;;;;;4.03;100.00;99229.13;5567615;32;34632;-73
2023/01/16 09:08:30;;;;;;;;;;;;;;;4.12;100.00;99222.94;5566972;32;34406;-72
2023/01/16 09:14:58;;;;;;;;;;;;;;;4.01;100.00;99211.91;5568069;32;34022;-74
2023/01/16 09:18:04;;;;;;;;;;;;;;;4.23;100.00;99206.94;5567034;32;35105;-73
2023/01/16 09:21:10;;;;;;;;;;;;;;;4.25;100.00;99181.38;5568300;32;34227;-73
2023/01/16 09:24:14;;;;;;;;;;;;;;;4.32;100.00;99185.00;5541336;32;32968;-72
2023/01/16 09:27:19;;;;;;;;;;;;;;;4.17;100.00;99170.81;5567157;32;34941;-73
2023/01/16 09:30:23;;;;;;;;;;;;;;;4.16;100.00;99163.94;5568118;32;33970;-74
2023/01/16 09:33:28;;;;;;;;;;;;;;;4.15;100.00;99162.28;5568207;32;34388;-73
2023/01/16 09:36:32;;;;;;;;;;;;;;;4.10;100.00;99146.19;5568544;32;34252;-73
2023/01/16 09:39:38;;;;;;;;;;;;;;;4.25;100.00;99138.53;5567832;32;34374;-73
2023/01/16 09:46:16;;;;;;;;;;;;;;;4.25;100.00;99117.53;5567103;32;34361;-72
2023/01/16 09:49:26;;;;;;;;;;;;;;;4.25;100.00;99114.91;5567058;32;34334;-73
2023/01/16 09:59:27;;;;;;;;;;;;;;;4.42;100.00;99082.47;5568078;32;34919;-74
2023/01/16 10:02:32;;;;;;;;;;;;;;;4.54;100.00;99075.94;5554396;32;33378;-74
2023/01/16 10:05:49;;;;;;;;;;;;;;;4.45;100.00;99076.91;5554177;32;34848;-74
2023/01/16 10:08:56;;;;;;;;;;;;;;;4.41;100.00;99064.25;5553505;32;33962;-73
2023/01/16 10:12:04;;;;;;;;;;;;;;;4.33;100.00;99059.81;5567774;32;34601;-75
2023/01/16 10:15:22;;;;;;;;;;;;;;;4.42;100.00;99053.59;5540948;32;32723;-74
2023/01/16 10:18:25;;;;;;;;;;;;;;;4.46;100.00;99049.66;5553938;32;33545;-74
2023/01/16 10:21:29;;;;;;;;;;;;;;;4.55;100.00;99037.38;5567885;32;34898;-75
2023/01/16 10:24:36;;;;;;;;;;;;;;;4.45;100.00;99036.69;5553939;32;34924;-75
2023/01/16 10:27:40;;;;;;;;;;;;;;;4.51;100.00;99025.53;5553362;32;35236;-74
2023/01/16 10:30:55;;;;;;;;;;;;;;;4.52;100.00;99017.50;5553405;32;33952;-75
2023/01/16 10:33:58;;;;;;;;;;;;;;;4.58;100.00;99006.34;5552264;32;33783;-75
2023/01/16 10:37:04;;;;;;;;;;;;;;;4.60;100.00;99004.38;5566868;32;34566;-75
2023/01/16 10:40:12;;;;;;;;;;;;;;;4.62;100.00;98989.28;5552494;32;34940;-73
2023/01/16 10:50:25;;;;;;;;;;;;;;;4.96;100.00;98973.34;5555475;32;34742;-73
2023/01/16 10:53:39;;;;;;;;;;;;;;;4.98;100.00;98976.62;5541651;32;33211;-73
2023/01/16 10:56:44;;;;;;;;;;;;;;;4.75;100.00;98971.22;5553696;32;34841;-74
2023/01/16 10:59:53;;;;;;;;;;;;;;;4.96;100.00;98954.13;5553835;32;34726;-75
2023/01/16 11:02:58;;;;;;;;;;;;;;;4.89;100.00;98953.94;5539555;32;33275;-73
2023/01/16 11:06:09;;;;;;;;;;;;;;;4.91;100.00;98941.47;5553007;32;35164;-74
2023/01/16 11:09:14;;;;;;;;;;;;;;;4.86;100.00;98935.06;5553402;32;33386;-74
2023/01/16 11:18:27;;;;;;;;;;;;;;;5.06;100.00;98921.41;5567096;32;34819;-74
2023/01/16 11:19:39;;;;;;;;;;;;;;;4.86;100.00;98912.25;5566481;32;34569;-74
2023/01/16 11:22:47;;;;;;;;;;;;;;;5.04;100.00;98896.28;5553296;32;34293;-73
2023/01/16 11:25:54;;;;;;;;;;;;;;;5.02;100.00;98896.47;5539336;32;33009;-73
2023/01/16 11:28:59;;;;;;;;;;;;;;;4.94;100.00;98883.31;5552761;32;34117;-74
2023/01/16 11:32:05;;;;;;;;;;;;;;;4.77;100.00;98886.97;5553450;32;34129;-74
2023/01/16 11:35:15;;;;;;;;;;;;;;;4.75;100.00;98874.00;5544171;32;33121;-73
2023/01/16 11:38:19;;;;;;;;;;;;;;;4.67;100.00;98846.94;5552470;32;34852;-74
2023/01/16 11:41:28;;;;;;;;;;;;;;;4.64;100.00;98863.03;5566327;32;34385;-75
2023/01/16 11:48:00;;;;;;;;;;;;;;;4.54;100.00;98841.41;5552721;32;33563;-76
2023/01/16 11:51:05;;;;;;;;;;;;;;;4.70;100.00;98833.47;5551812;32;34782;-77
2023/01/16 11:54:16;;;;;;;;;;;;;;;4.54;100.00;98826.47;5539905;32;32804;-78
2023/01/16 11:57:25;;;;;;;;;;;;;;;4.56;100.00;98823.66;5564871;32;34033;-78
2023/01/16 12:00:45;;;;;;;;;;;;;;;4.49;100.00;98812.19;5556120;32;33169;-78
2023/01/16 12:04:02;;;;;;;;;;;;;;;4.45;100.00;98801.22;5539869;32;33618;-75
2023/01/16 12:07:13;;;;;;;;;;;;;;;4.42;100.00;98798.06;5566115;32;34048;-76
2023/01/16 12:10:23;;;;;;;;;;;;;;;4.44;100.00;98789.06;5551862;32;33357;-76
2023/01/16 12:17:05;;;;;;;;;;;;;;;4.32;100.00;98766.75;5568581;32;34305;-75
2023/01/16 12:20:29;;;;;;;;;;;;;;;4.33;100.00;98756.09;5554844;32;34877;-75
2023/01/16 12:23:33;;;;;;;;;;;;;;;4.41;100.00;98755.25;5554679;32;34497;-75
2023/01/16 12:26:50;;;;;;;;;;;;;;;4.35;100.00;98738.38;5541849;32;34024;-75
2023/01/16 12:30:19;;;;;;;;;;;;;;;4.30;100.00;98735.44;5555362;32;34531;-76
2023/01/16 12:33:32;;;;;;;;;;;;;;;4.32;100.00;98728.19;5555014;32;34298;-75
2023/01/16 12:36:45;;;;;;;;;;;;;;;4.33;100.00;98716.72;5568528;32;34303;-75
2023/01/16 12:40:01;;;;;;;;;;;;;;;4.23;100.00;98720.50;5568906;32;34704;-76
2023/01/16 12:43:23;;;;;;;;;;;;;;;4.23;100.00;98715.25;5568964;32;34233;-76
2023/01/16 12:46:46;;;;;;;;;;;;;;;4.22;100.00;98709.19;5554449;32;34058;-76
2023/01/16 12:50:08;;;;;;;;;;;;;;;4.19;100.00;98709.53;5568653;32;34663;-76
2023/01/16 12:53:28;;;;;;;;;;;;;;;4.18;100.00;98693.94;5568502;32;34204;-76
2023/01/16 12:57:01;;;;;;;;;;;;;;;4.14;100.00;98693.47;5554858;32;34828;-76
2023/01/16 13:00:12;;;;;;;;;;;;;;;4.20;100.00;98684.13;5500836;32;34755;-76
2023/01/16 13:03:39;;;;;;;;;;;;;;;4.31;100.00;98686.34;5541688;32;33514;-76
2023/01/16 13:06:45;;;;;;;;;;;;;;;4.18;100.00;98684.28;5568442;32;34954;-76
2023/01/16 13:13:20;;;;;;;;;;;;;;;4.18;100.00;98679.03;5568488;32;33945;-76
2023/01/16 13:13:26;;;;;;;;;;;;;;;4.06;100.00;98667.28;5568596;32;34941;-75
2023/01/16 13:16:35;;;;;;;;;;;;;;;4.08;100.00;98667.91;5545482;32;34211;-75
2023/01/16 13:19:40;;;;;;;;;;;;;;;4.04;100.00;98661.34;5547777;32;34354;-75
2023/01/16 13:22:50;;;;;;;;;;;;;;;4.06;100.00;98653.31;5550007;32;34887;-75
2023/01/16 13:25:57;;;;;;;;;;;;;;;4.13;100.00;98643.78;5566929;32;34262;-76
2023/01/16 13:29:11;;;;;;;;;;;;;;;4.10;100.00;98636.25;5567473;32;34100;-75
2023/01/16 13:32:28;;;;;;;;;;;;;;;4.19;100.00;98643.09;5559978;32;34272;-76
2023/01/16 13:35:41;;;;;;;;;;;;;;;4.12;100.00;98642.97;5547513;32;33254;-76
2023/01/16 13:38:46;;;;;;;;;;;;;;;4.14;100.00;98645.41;5549092;32;35252;-76
2023/01/16 13:41:50;;;;;;;;;;;;;;;4.12;100.00;98639.50;5551293;32;34582;-76
2023/01/16 13:48:32;;;;;;;;;;;;;;;4.03;100.00;98648.41;5553955;32;34447;-76
2023/01/16 13:51:42;;;;;;;;;;;;;;;3.92;100.00;98632.03;5548872;32;34917;-75
2023/01/16 13:54:47;;;;;;;;;;;;;;;3.79;100.00;98638.78;5547889;32;35011;-75
2023/01/16 13:57:53;;;;;;;;;;;;;;;3.76;100.00;98650.44;5549678;32;34138;-75
2023/01/16 14:01:01;;;;;;;;;;;;;;;3.78;100.00;98630.09;5567218;32;33253;-74
2023/01/16 14:04:14;;;;;;;;;;;;;;;3.80;100.00;98630.75;5554157;32;34542;-74
2023/01/16 14:11:15;;;;;;;;;;;;;;;3.76;100.00;98629.47;5567074;32;34118;-75
2023/01/16 14:17:57;;;;;;;;;;;;;;;3.77;100.00;98614.53;5533357;32;33814;-75
2023/01/16 14:21:04;;;;;;;;;;;;;;;3.78;100.00;98610.91;5538138;32;33832;-75
2023/01/16 14:24:18;;;;;;;;;;;;;;;3.81;100.00;98595.69;5535386;32;34113;-75
2023/01/16 14:27:28;;;;;;;;;;;;;;;3.74;100.00;98594.69;5552783;32;34640;-75
2023/01/16 14:30:34;;;;;;;;;;;;;;;3.80;100.00;98582.72;5516415;32;34213;-76
2023/01/16 14:33:44;;;;;;;;;;;;;;;3.81;100.00;98582.56;5497662;32;36678;-74
2023/01/16 14:36:51;;;;;;;;;;;;;;;3.78;100.00;98567.16;5503944;32;34843;-75
2023/01/16 14:39:58;;;;;;;;;;;;;;;3.83;100.00;98561.37;5542761;32;34402;-75
2023/01/16 14:56:41;;;;;;;;;;;;;;;3.74;100.00;98546.66;5547981;32;34888;-73
2023/01/16 14:59:44;;;;;;;;;;;;;;;3.72;100.00;98539.00;5547096;32;32943;-75
2023/01/16 15:03:03;;;;;;;;;;;;;;;3.70;100.00;98530.47;5547055;32;35526;-73
2023/01/16 15:06:09;;;;;;;;;;;;;;;3.72;100.00;98525.06;5552400;32;34926;-73
2023/01/16 15:09:16;;;;;;;;;;;;;;;3.77;100.00;98518.31;5567075;32;34906;-74
2023/01/16 15:12:35;;;;;;;;;;;;;;;3.77;100.00;98517.50;5553547;32;35171;-74
2023/01/16 15:15:43;;;;;;;;;;;;;;;3.67;100.00;98506.41;5527345;32;33214;-74
2023/01/16 15:22:18;;;;;;;;;;;;;;;3.76;100.00;98503.56;5550194;32;34086;-74
2023/01/16 15:25:28;;;;;;;;;;;;;;;3.78;100.00;98495.50;5546223;32;34253;-73
2023/01/16 15:28:40;;;;;;;;;;;;;;;3.81;100.00;98482.91;5558916;32;34226;-73
2023/01/16 15:31:46;;;;;;;;;;;;;;;3.77;100.00;98471.13;5567170;32;34956;-73
2023/01/16 15:35:06;;;;;;;;;;;;;;;3.71;100.00;98487.53;5553250;32;33057;-73
2023/01/16 15:38:11;;;;;;;;;;;;;;;3.76;100.00;98482.59;5565669;32;33061;-73
2023/01/16 15:41:19;;;;;;;;;;;;;;;3.80;100.00;98481.25;5554233;32;33874;-72
2023/01/16 15:47:48;;;;;;;;;;;;;;;3.85;100.00;98462.37;5561773;32;34415;-74
2023/01/16 15:51:00;;;;;;;;;;;;;;;3.80;100.00;98456.84;5548184;32;32838;-74
2023/01/16 15:54:04;;;;;;;;;;;;;;;3.76;100.00;98456.38;5549605;32;33550;-74
2023/01/16 15:57:18;;;;;;;;;;;;;;;3.79;100.00;98447.31;5538473;32;34468;-74
2023/01/16 16:00:24;;;;;;;;;;;;;;;3.78;100.00;98446.50;5537481;32;33286;-74
2023/01/16 16:03:36;;;;;;;;;;;;;;;3.79;100.00;98453.37;5542117;32;33490;-74
2023/01/16 16:06:41;;;;;;;;;;;;;;;3.82;100.00;98453.06;5549874;32;33492;-73
2023/01/16 16:09:47;;;;;;;;;;;;;;;3.85;100.00;98454.50;5559474;32;34995;-74
2023/01/16 16:12:51;;;;;;;;;;;;;;;3.83;100.00;98457.28;5550538;32;34099;-73
2023/01/16 16:19:35;;;;;;;;;;;;;;;3.86;100.00;98450.91;5515214;32;33042;-74
2023/01/16 16:22:50;;;;;;;;;;;;;;;3.92;100.00;98443.16;5549383;32;34665;-72
2023/01/16 16:25:56;;;;;;;;;;;;;;;3.98;100.00;98443.44;5549307;32;34221;-73
2023/01/16 16:29:04;;;;;;;;;;;;;;;3.91;100.00;98433.66;5535757;32;32362;-72
2023/01/16 16:32:13;;;;;;;;;;;;;;;3.96;100.00;98435.78;5547969;32;34378;-72
2023/01/16 16:35:33;;;;;;;;;;;;;;;4.01;100.00;98422.13;5548450;32;35660;-72
2023/01/16 16:38:39;;;;;;;;;;;;;;;4.00;100.00;98418.69;5549286;32;34688;-73
2023/01/16 16:45:17;;;;;;;;;;;;;;;3.97;100.00;98407.72;5549023;32;33661;-73
2023/01/16 16:48:30;;;;;;;;;;;;;;;3.96;100.00;98392.97;5535719;32;32999;-73
2023/01/16 16:51:39;;;;;;;;;;;;;;;3.98;100.00;98378.69;5560880;32;34622;-73
2023/01/16 16:54:53;;;;;;;;;;;;;;;4.02;100.00;98393.06;5548353;32;35144;-73
2023/01/16 16:58:01;;;;;;;;;;;;;;;4.04;100.00;98385.84;5549146;32;34099;-73
2023/01/16 17:01:05;;;;;;;;;;;;;;;4.13;100.00;98383.97;5533996;32;33270;-73
2023/01/16 17:04:16;;;;;;;;;;;;;;;4.10;100.00;98381.72;5548214;32;32786;-72
2023/01/16 17:07:21;;;;;;;;;;;;;;;4.10;100.00;98376.47;5535087;32;34403;-72
2023/01/16 17:10:28;;;;;;;;;;;;;;;4.09;100.00;98383.53;5549147;32;34132;-73
2023/01/16 17:13:34;;;;;;;;;;;;;;;4.03;100.00;98384.22;5543484;32;34049;-73
2023/01/16 17:16:41;;;;;;;;;;;;;;;4.03;100.00;98383.41;5566989;32;33990;-73
2023/01/16 17:19:47;;;;;;;;;;;;;;;4.07;100.00;98377.63;5542291;32;33738;-73
2023/01/16 17:22:54;;;;;;;;;;;;;;;4.05;100.00;98379.63;5535564;32;35490;-73
2023/01/16 17:26:03;;;;;;;;;;;;;;;4.09;100.00;98386.16;5548607;32;34332;-73
2023/01/16 17:29:08;;;;;;;;;;;;;;;4.05;100.00;98379.63;5548625;32;34320;-73
2023/01/16 17:32:21;;;;;;;;;;;;;;;4.09;100.00;98380.91;5557979;32;34108;-72
2023/01/16 17:35:29;;;;;;;;;;;;;;;4.14;100.00;98381.19;5553670;32;32718;-73
2023/01/16 17:38:38;;;;;;;;;;;;;;;4.12;100.00;98387.59;5535456;32;34758;-74
2023/01/16 17:48:18;;;;;;;;;;;;;;;4.14;100.00;98388.25;5547440;32;34711;-75
2023/01/16 17:51:27;;;;;;;;;;;;;;;4.23;100.00;98395.06;5547907;32;35955;-74
2023/01/16 17:58:00;;;;;;;;;;;;;;;4.22;100.00;98372.44;5547136;32;33519;-73
2023/01/16 18:01:10;;;;;;;;;;;;;;;4.21;100.00;98368.19;5547644;32;33255;-73
2023/01/16 18:04:18;;;;;;;;;;;;;;;4.27;100.00;98367.47;5554216;32;34889;-75
2023/01/16 18:07:23;;;;;;;;;;;;;;;4.28;100.00;98343.69;5567991;32;34620;-73